New Maysville, Indiana
Current Conditions -  °F | °C
As of 6:55 PM on Sunday 21 Dec 2014 (Local Time) from K4I7 Reporting Station
Clear Clear  
Wind Chill: 26°   Ceiling: Unl
Heat Index: 32°   Visibility: 7mi
Dew Point: 27°   Wind: 7mph
Humidity: 80%   Direction: 110°ESE
Pressure: 30.11"   Gusts: NA
Location:  39.821°N, 86.7929°W
Report Text: K4I7 212355Z AUTO 11006KT 7SM CLR 00/M03 A3011 RMK AO2
Loading
Personal Weather Stations






























Interactive Weather Map New forecast layout! Learn more

10-Day Weather Forecast

Advertisements
Track Severe Weather on mobile